createdAt,value
2019-03-23T00:00:16.257Z,4.37
2019-03-23T00:02:45.944Z,4.17
2019-03-23T00:05:15.892Z,4.53
2019-03-23T00:07:45.501Z,4.90
2019-03-23T00:10:15.177Z,4.30
2019-03-23T00:12:44.793Z,4.20
2019-03-23T00:15:15.260Z,4.10
2019-03-23T00:17:44.946Z,4.50
2019-03-23T00:20:15.047Z,4.00
2019-03-23T00:22:44.656Z,4.67
2019-03-23T00:25:14.476Z,4.30
2019-03-23T00:27:44.065Z,3.80
2019-03-23T00:30:14.989Z,4.40
2019-03-23T00:32:44.584Z,4.10
2019-03-23T00:35:15.058Z,4.50
2019-03-23T00:37:44.647Z,4.63
2019-03-23T00:40:14.643Z,4.30
2019-03-23T00:42:44.294Z,3.87
2019-03-23T00:45:14.076Z,4.07
2019-03-23T00:47:43.695Z,3.67
2019-03-23T00:50:13.619Z,4.03
2019-03-23T00:52:43.233Z,3.77
2019-03-23T00:55:12.914Z,4.17
2019-03-23T00:57:42.543Z,4.17
2019-03-23T01:00:14.037Z,3.60
2019-03-23T01:02:43.824Z,4.07
2019-03-23T01:05:14.133Z,3.97
2019-03-23T01:07:43.722Z,4.40
2019-03-23T01:10:13.938Z,4.20
2019-03-23T01:12:43.596Z,4.27
2019-03-23T01:15:14.623Z,4.23
2019-03-23T01:17:44.375Z,4.13
2019-03-23T01:20:15.208Z,4.10
2019-03-23T01:22:44.796Z,3.90
2019-03-23T01:25:14.719Z,4.03
2019-03-23T01:27:44.338Z,4.07
2019-03-23T01:30:16.234Z,4.20
2019-03-23T01:32:45.848Z,4.03
2019-03-23T01:35:15.527Z,3.97
2019-03-23T01:37:45.142Z,4.50
2019-03-23T01:40:15.164Z,3.63
2019-03-23T01:42:44.776Z,3.90
2019-03-23T01:45:15.078Z,3.57
2019-03-23T01:47:44.766Z,3.97
2019-03-23T01:50:14.725Z,4.13
2019-03-23T01:52:44.310Z,4.23
2019-03-23T01:55:14.253Z,4.20
2019-03-23T01:57:43.861Z,4.10
2019-03-23T02:00:15.223Z,3.87
2019-03-23T02:02:44.831Z,3.80
2019-03-23T02:05:14.680Z,3.90
2019-03-23T02:07:44.321Z,3.83
2019-03-23T02:10:14.193Z,3.83
2019-03-23T02:12:43.808Z,3.80
2019-03-23T02:15:15.633Z,4.30
2019-03-23T02:17:45.239Z,3.20
2019-03-23T02:20:15.584Z,3.67
2019-03-23T02:22:45.241Z,3.80
2019-03-23T02:25:14.924Z,3.63
2019-03-23T02:27:44.537Z,3.80
2019-03-23T02:30:15.697Z,3.67
2019-03-23T02:32:45.286Z,4.10
2019-03-23T02:35:15.044Z,3.70
2019-03-23T02:37:44.629Z,3.77
2019-03-23T02:40:15.258Z,3.63
2019-03-23T02:42:44.893Z,3.73
2019-03-23T02:45:15.280Z,3.87
2019-03-23T02:47:44.885Z,3.50
2019-03-23T02:50:14.533Z,3.57
2019-03-23T02:52:44.147Z,3.07
2019-03-23T02:55:14.945Z,4.03
2019-03-23T02:57:44.624Z,3.90
2019-03-23T03:00:16.622Z,3.80
2019-03-23T03:02:46.321Z,4.13
2019-03-23T03:05:16.041Z,3.53
2019-03-23T03:07:45.658Z,3.77
2019-03-23T03:10:41.266Z,3.80
2019-03-23T03:13:11.402Z,4.77
2019-03-23T03:15:41.215Z,4.00
2019-03-23T03:18:11.038Z,3.70
2019-03-23T03:20:40.716Z,3.70
2019-03-23T03:23:10.376Z,3.97
2019-03-23T03:25:40.010Z,3.60
2019-03-23T03:28:09.655Z,4.20
2019-03-23T03:30:39.378Z,4.03
2019-03-23T03:33:08.970Z,4.53
2019-03-23T03:35:38.611Z,4.33
2019-03-23T03:38:08.275Z,4.30
2019-03-23T03:40:37.946Z,4.50
2019-03-23T03:43:07.562Z,4.03
2019-03-23T03:45:37.174Z,3.97
2019-03-23T03:48:07.727Z,3.77
2019-03-23T03:50:37.350Z,4.47
2019-03-23T03:53:06.929Z,4.10
2019-03-23T03:55:36.557Z,4.50
2019-03-23T03:58:06.215Z,4.50
2019-03-23T04:00:35.802Z,3.93
2019-03-23T04:03:05.602Z,4.20
2019-03-23T04:05:35.189Z,3.60
2019-03-23T04:08:11.205Z,3.70
2019-03-23T04:10:36.126Z,3.90
2019-03-23T04:13:05.709Z,4.37
2019-03-23T04:15:35.319Z,4.40
2019-03-23T04:18:05.064Z,4.43
2019-03-23T04:20:34.686Z,3.60
2019-03-23T04:23:04.489Z,4.07
2019-03-23T04:25:34.104Z,3.90
2019-03-23T04:28:03.784Z,4.67
2019-03-23T04:30:33.415Z,4.90
2019-03-23T04:33:03.094Z,4.17
2019-03-23T04:35:32.689Z,4.60
2019-03-23T04:38:02.301Z,4.50
2019-03-23T04:40:31.910Z,4.00
2019-03-23T04:43:01.531Z,3.60
2019-03-23T04:45:31.114Z,4.27
2019-03-23T04:48:00.803Z,4.50
2019-03-23T04:50:30.392Z,4.43
2019-03-23T04:53:00.009Z,4.13
2019-03-23T04:55:29.601Z,4.70
2019-03-23T04:57:59.227Z,4.57
2019-03-23T05:00:28.814Z,4.17
2019-03-23T05:02:58.509Z,4.07
2019-03-23T05:05:28.127Z,4.63
2019-03-23T05:07:57.713Z,5.03
2019-03-23T05:10:27.332Z,5.10
2019-03-23T05:12:56.933Z,4.40
2019-03-23T05:15:26.551Z,4.80
2019-03-23T05:17:56.137Z,4.07
2019-03-23T05:20:31.643Z,4.90
2019-03-23T05:23:01.403Z,4.20
2019-03-23T05:25:31.488Z,4.93
2019-03-23T05:28:01.152Z,4.43
2019-03-23T05:30:30.742Z,4.50
2019-03-23T05:33:00.365Z,4.00
2019-03-23T05:35:29.989Z,4.37
2019-03-23T05:37:59.665Z,4.57
2019-03-23T05:40:29.277Z,4.20
2019-03-23T05:42:58.899Z,4.83
2019-03-23T05:45:28.512Z,4.33
2019-03-23T05:47:58.128Z,4.83
2019-03-23T05:50:27.745Z,5.43
2019-03-23T05:52:57.352Z,5.70
2019-03-23T05:55:26.936Z,5.10
2019-03-23T05:57:56.556Z,5.53
2019-03-23T06:00:26.344Z,4.07
2019-03-23T06:02:55.962Z,5.40
2019-03-23T06:05:25.569Z,4.50
2019-03-23T06:07:55.190Z,5.20
2019-03-23T06:10:24.773Z,5.23
2019-03-23T06:12:54.363Z,5.20
2019-03-23T06:15:24.055Z,5.33
2019-03-23T06:17:53.641Z,5.70
2019-03-23T06:20:23.258Z,5.40
2019-03-23T06:22:52.852Z,6.03
2019-03-23T06:25:22.470Z,4.80
2019-03-23T06:27:52.154Z,4.93
2019-03-23T06:30:21.779Z,5.40
2019-03-23T06:32:51.364Z,5.30
2019-03-23T06:35:21.045Z,5.23
2019-03-23T06:37:50.653Z,8.63
2019-03-23T06:40:20.382Z,8.60
2019-03-23T06:42:59.378Z,9.47
2019-03-23T06:45:21.329Z,8.10
2019-03-23T06:47:50.923Z,8.67
2019-03-23T06:50:20.511Z,7.87
2019-03-23T06:52:50.138Z,7.93
2019-03-23T06:55:19.800Z,8.17
2019-03-23T06:57:49.484Z,9.07
2019-03-23T07:00:19.142Z,9.40
2019-03-23T07:02:48.821Z,9.07
2019-03-23T07:05:18.410Z,8.50
2019-03-23T07:07:48.038Z,8.40
2019-03-23T07:10:17.773Z,8.70
2019-03-23T07:12:47.360Z,8.50
2019-03-23T07:15:20.380Z,7.43
2019-03-23T07:17:48.329Z,7.27
2019-03-23T07:20:17.940Z,7.87
2019-03-23T07:22:47.535Z,7.03
2019-03-23T07:25:17.155Z,7.33
2019-03-23T07:27:46.753Z,7.37
2019-03-23T07:30:20.172Z,7.43
2019-03-23T07:32:49.809Z,6.87
2019-03-23T07:35:19.563Z,7.40
2019-03-23T07:37:49.213Z,6.80
2019-03-23T07:40:18.975Z,5.93
2019-03-23T07:42:48.603Z,6.47
2019-03-23T07:45:18.343Z,6.27
2019-03-23T07:47:47.972Z,5.70
2019-03-23T07:50:17.810Z,5.73
2019-03-23T07:52:47.433Z,5.67
2019-03-23T07:55:17.872Z,5.50
2019-03-23T07:57:48.003Z,5.17
2019-03-23T08:00:20.732Z,5.50
2019-03-23T08:02:50.377Z,5.20
2019-03-23T08:05:21.523Z,4.90
2019-03-23T08:07:51.307Z,5.63
2019-03-23T08:10:30.546Z,6.10
2019-03-23T08:13:00.217Z,5.63
2019-03-23T08:15:30.359Z,6.17
2019-03-23T08:17:59.960Z,5.33
2019-03-23T08:20:29.883Z,6.17
2019-03-23T08:22:59.514Z,7.77
2019-03-23T08:25:29.124Z,7.33
2019-03-23T08:27:58.742Z,7.83
2019-03-23T08:30:28.345Z,7.43
2019-03-23T08:32:57.965Z,6.97
2019-03-23T08:35:27.583Z,7.43
2019-03-23T08:37:57.207Z,7.10
2019-03-23T08:40:26.835Z,7.20
2019-03-23T08:42:56.435Z,6.83
2019-03-23T08:45:26.066Z,6.23
2019-03-23T08:47:55.747Z,6.90
2019-03-23T08:50:25.346Z,7.07
2019-03-23T08:52:55.068Z,5.97
2019-03-23T08:55:24.664Z,6.47
2019-03-23T08:57:54.290Z,6.50
2019-03-23T09:00:23.884Z,6.70
2019-03-23T09:02:53.601Z,6.60
2019-03-23T09:05:23.205Z,6.43
2019-03-23T09:07:52.835Z,7.17
2019-03-23T09:10:22.463Z,7.47
2019-03-23T09:12:52.062Z,7.27
2019-03-23T09:15:21.695Z,7.97
2019-03-23T09:17:51.325Z,8.40
2019-03-23T09:20:20.924Z,7.50
2019-03-23T09:22:50.551Z,7.70
2019-03-23T09:25:20.148Z,8.40
2019-03-23T09:27:49.775Z,8.50
2019-03-23T09:30:19.461Z,7.87
2019-03-23T09:32:49.092Z,8.50
2019-03-23T09:35:18.688Z,8.50
2019-03-23T09:37:48.316Z,8.57
2019-03-23T09:40:17.993Z,8.40
2019-03-23T09:42:47.608Z,8.57
2019-03-23T09:45:17.261Z,8.57
2019-03-23T09:47:46.860Z,7.50
2019-03-23T09:50:16.819Z,8.30
2019-03-23T09:52:46.527Z,6.97
2019-03-23T09:55:16.138Z,7.93
2019-03-23T09:57:45.733Z,7.90
2019-03-23T10:00:15.488Z,8.00
2019-03-23T10:02:45.087Z,8.00
2019-03-23T10:05:14.779Z,7.77
2019-03-23T10:07:44.379Z,7.90
2019-03-23T10:10:21.653Z,8.07
2019-03-23T10:12:45.483Z,9.10
2019-03-23T10:15:15.263Z,8.37
2019-03-23T10:17:44.891Z,8.47
2019-03-23T10:20:14.560Z,8.67
2019-03-23T10:22:44.179Z,8.23
2019-03-23T10:25:13.804Z,8.60
2019-03-23T10:27:43.403Z,9.50
2019-03-23T10:30:13.640Z,8.73
2019-03-23T10:32:43.255Z,8.87
2019-03-23T10:35:13.452Z,7.93
2019-03-23T10:37:43.085Z,8.27
2019-03-23T10:40:13.387Z,7.83
2019-03-23T10:42:43.420Z,7.80
2019-03-23T10:45:13.451Z,6.97
2019-03-23T10:47:43.193Z,7.90
2019-03-23T10:50:13.211Z,6.70
2019-03-23T10:52:42.809Z,7.33
2019-03-23T10:55:12.872Z,7.60
2019-03-23T10:57:42.562Z,7.00
2019-03-23T11:00:14.340Z,6.67
2019-03-23T11:02:43.967Z,7.20
2019-03-23T11:05:13.885Z,6.50
2019-03-23T11:07:43.514Z,6.50
2019-03-23T11:10:14.715Z,6.10
2019-03-23T11:12:44.360Z,7.33
2019-03-23T11:15:14.087Z,6.87
2019-03-23T11:17:43.695Z,5.93
2019-03-23T11:20:14.633Z,6.00
2019-03-23T11:22:44.309Z,7.50
2019-03-23T11:25:14.369Z,6.90
2019-03-23T11:27:43.967Z,6.47
2019-03-23T11:30:16.923Z,6.47
2019-03-23T11:32:46.616Z,6.70
2019-03-23T11:35:16.377Z,6.93
2019-03-23T11:37:46.251Z,6.43
2019-03-23T11:40:16.125Z,7.40
2019-03-23T11:42:50.131Z,6.23
2019-03-23T11:45:17.122Z,6.83
2019-03-23T11:47:46.721Z,6.83
2019-03-23T11:50:16.492Z,7.60
2019-03-23T11:52:47.089Z,7.63
2019-03-23T11:55:16.796Z,7.40
2019-03-23T11:57:46.408Z,7.47
2019-03-23T12:00:16.832Z,7.00
2019-03-23T12:02:46.428Z,7.50
2019-03-23T12:05:16.053Z,7.47
2019-03-23T12:07:45.652Z,6.80
2019-03-23T12:10:15.614Z,7.40
2019-03-23T12:12:45.241Z,7.53
2019-03-23T12:15:15.475Z,6.85
2019-03-23T12:17:45.102Z,7.10
2019-03-23T12:20:14.835Z,7.37
2019-03-23T12:22:44.533Z,7.27
2019-03-23T12:25:14.776Z,7.30
2019-03-23T12:27:44.440Z,7.03
2019-03-23T12:30:18.963Z,7.30
2019-03-23T12:32:48.590Z,6.80
2019-03-23T12:35:18.190Z,7.20
2019-03-23T12:37:47.973Z,6.93
2019-03-23T12:40:18.307Z,6.97
2019-03-23T12:42:47.910Z,7.67
2019-03-23T12:45:17.664Z,7.10
2019-03-23T12:47:47.326Z,7.00
2019-03-23T12:50:17.159Z,7.30
2019-03-23T12:52:46.751Z,7.33
2019-03-23T12:55:16.375Z,6.57
2019-03-23T12:57:45.995Z,5.97
2019-03-23T13:00:17.330Z,6.37
2019-03-23T13:02:46.956Z,6.83
2019-03-23T13:05:16.552Z,6.87
2019-03-23T13:07:46.171Z,6.33
2019-03-23T13:10:17.033Z,7.33
2019-03-23T13:12:46.723Z,7.00
2019-03-23T13:15:17.410Z,7.10
2019-03-23T13:17:47.033Z,7.63
2019-03-23T13:20:16.959Z,6.40
2019-03-23T13:22:46.618Z,6.58
2019-03-23T13:25:16.248Z,7.40
2019-03-23T13:27:45.842Z,7.70
2019-03-23T13:30:19.408Z,6.90
2019-03-23T13:32:49.008Z,6.87
2019-03-23T13:35:18.692Z,6.47
2019-03-23T13:37:48.291Z,7.60
2019-03-23T13:40:17.981Z,7.60
2019-03-23T13:42:47.573Z,6.63
2019-03-23T13:45:17.268Z,6.97
2019-03-23T13:47:46.872Z,6.43
2019-03-23T13:50:28.797Z,7.07
2019-03-23T13:52:58.533Z,6.50
2019-03-23T13:55:34.180Z,6.00
2019-03-23T13:58:11.289Z,5.90
2019-03-23T14:00:41.419Z,5.87
2019-03-23T14:03:11.560Z,6.20
2019-03-23T14:05:41.181Z,6.30
2019-03-23T14:08:10.801Z,6.15
2019-03-23T14:10:40.531Z,6.00
2019-03-23T14:13:10.128Z,5.12
2019-03-23T14:15:39.757Z,4.93
2019-03-23T14:18:09.438Z,5.40
2019-03-23T14:20:39.058Z,5.62
2019-03-23T14:23:08.772Z,6.10
2019-03-23T14:25:38.399Z,5.73
2019-03-23T14:28:08.282Z,5.40
2019-03-23T14:30:38.005Z,6.28
2019-03-23T14:33:07.665Z,5.50
2019-03-23T14:35:37.295Z,5.47
2019-03-23T14:38:06.915Z,5.80
2019-03-23T14:40:36.744Z,6.03
2019-03-23T14:43:06.419Z,6.30
2019-03-23T14:45:37.020Z,5.63
2019-03-23T14:48:06.796Z,5.70
2019-03-23T14:50:36.390Z,5.10
2019-03-23T14:53:06.156Z,6.27
2019-03-23T14:55:37.442Z,6.57
2019-03-23T14:58:07.271Z,7.00
2019-03-23T15:00:37.209Z,7.40
2019-03-23T15:03:06.897Z,7.20
2019-03-23T15:05:36.674Z,6.20
2019-03-23T15:08:06.452Z,7.07
2019-03-23T15:10:36.056Z,6.90
2019-03-23T15:13:05.682Z,6.33
2019-03-23T15:15:35.281Z,6.27
2019-03-23T15:18:04.921Z,6.12
2019-03-23T15:20:34.506Z,5.47
2019-03-23T15:23:04.166Z,6.40
2019-03-23T15:25:33.874Z,6.12
2019-03-23T15:28:03.502Z,5.57
2019-03-23T15:30:33.100Z,6.13
2019-03-23T15:33:02.731Z,5.83
2019-03-23T15:35:32.327Z,4.97
2019-03-23T15:38:01.953Z,5.63
2019-03-23T15:40:31.551Z,5.83
2019-03-23T15:43:01.191Z,5.60
2019-03-23T15:45:30.783Z,6.20
2019-03-23T15:48:00.406Z,5.43
2019-03-23T15:50:30.007Z,6.80
2019-03-23T15:52:59.635Z,6.20
2019-03-23T15:55:29.238Z,6.17
2019-03-23T15:57:58.869Z,5.90
2019-03-23T16:00:28.547Z,5.10
2019-03-23T16:02:58.168Z,5.73
2019-03-23T16:05:27.796Z,4.93
2019-03-23T16:07:57.484Z,5.27
2019-03-23T16:10:27.179Z,4.77
2019-03-23T16:12:56.771Z,4.67
2019-03-23T16:15:26.463Z,3.93
2019-03-23T16:17:56.157Z,4.33
2019-03-23T16:20:25.757Z,4.43
2019-03-23T16:22:55.377Z,4.03
2019-03-23T16:25:25.011Z,3.90
2019-03-23T16:27:54.599Z,3.90
2019-03-23T16:30:32.933Z,3.93
2019-03-23T16:33:02.553Z,3.83
2019-03-23T16:35:32.158Z,3.90
2019-03-23T16:38:01.795Z,3.60
2019-03-23T16:40:31.392Z,3.70
2019-03-23T16:43:01.011Z,3.77
2019-03-23T16:45:30.674Z,3.27
2019-03-23T16:48:00.368Z,3.40
2019-03-23T16:50:29.968Z,3.50
2019-03-23T16:52:59.586Z,3.43
2019-03-23T16:55:29.212Z,3.53
2019-03-23T16:57:58.831Z,3.70
2019-03-23T17:00:36.731Z,3.80
2019-03-23T17:03:07.096Z,7.97
2019-03-23T17:05:36.764Z,9.77
2019-03-23T17:08:06.737Z,10.00
2019-03-23T17:10:36.337Z,11.50
2019-03-23T17:13:06.112Z,10.50
2019-03-23T17:15:35.781Z,12.83
2019-03-23T17:18:05.751Z,14.03
2019-03-23T17:20:35.349Z,13.57
2019-03-23T17:23:05.082Z,13.03
2019-03-23T17:25:34.684Z,12.93
2019-03-23T17:28:04.376Z,13.23
2019-03-23T17:30:34.051Z,13.53
2019-03-23T17:33:03.756Z,14.07
2019-03-23T17:35:33.351Z,15.80
2019-03-23T17:38:03.028Z,13.97
2019-03-23T17:40:32.632Z,12.50
2019-03-23T17:43:06.231Z,11.73
2019-03-23T17:45:33.690Z,10.23
2019-03-23T17:48:03.282Z,10.23
2019-03-23T17:50:32.911Z,9.47
2019-03-23T17:53:02.509Z,8.73
2019-03-23T17:55:32.131Z,8.77
2019-03-23T17:58:01.729Z,8.77
2019-03-23T18:00:32.315Z,8.73
2019-03-23T18:03:01.896Z,8.40
2019-03-23T18:05:31.563Z,8.37
2019-03-23T18:08:01.184Z,8.17
2019-03-23T18:10:30.779Z,8.20
2019-03-23T18:13:00.398Z,8.57
2019-03-23T18:15:29.998Z,9.50
2019-03-23T18:17:59.667Z,9.47
2019-03-23T18:20:29.289Z,8.87
2019-03-23T18:22:58.888Z,9.00
2019-03-23T18:25:28.519Z,10.00
2019-03-23T18:27:58.127Z,9.57
2019-03-23T18:30:37.517Z,9.27
2019-03-23T18:33:07.663Z,9.20
2019-03-23T18:35:37.328Z,9.10
2019-03-23T18:38:07.385Z,9.43
2019-03-23T18:40:38.576Z,10.10
2019-03-23T18:43:08.551Z,10.97
2019-03-23T18:45:38.355Z,9.47
2019-03-23T18:48:08.160Z,8.63
2019-03-23T18:50:37.830Z,9.63
2019-03-23T18:53:07.380Z,8.93
2019-03-23T18:55:37.080Z,8.43
2019-03-23T18:58:06.689Z,8.30
2019-03-23T19:00:40.434Z,8.10
2019-03-23T19:03:10.274Z,7.67
2019-03-23T19:05:39.994Z,9.30
2019-03-23T19:08:11.797Z,9.60
2019-03-23T19:10:41.107Z,9.30
2019-03-23T19:13:10.716Z,9.70
2019-03-23T19:15:40.340Z,8.97
2019-03-23T19:18:10.037Z,9.63
2019-03-23T19:20:39.635Z,9.00
2019-03-23T19:23:09.371Z,8.83
2019-03-23T19:25:38.995Z,9.13
2019-03-23T19:28:08.695Z,8.30
2019-03-23T19:30:38.314Z,9.53
2019-03-23T19:33:07.980Z,8.20
2019-03-23T19:35:37.604Z,8.13
2019-03-23T19:38:07.268Z,7.83
2019-03-23T19:40:36.929Z,8.63
2019-03-23T19:43:06.696Z,8.40
2019-03-23T19:45:36.358Z,8.27
2019-03-23T19:48:06.213Z,8.43
2019-03-23T19:50:35.814Z,9.40
2019-03-23T19:53:05.499Z,9.30
2019-03-23T19:55:35.182Z,9.63
2019-03-23T19:58:05.751Z,8.83
2019-03-23T20:00:35.446Z,9.00
2019-03-23T20:03:05.133Z,9.40
2019-03-23T20:05:34.754Z,8.87
2019-03-23T20:08:04.418Z,9.33
2019-03-23T20:10:34.006Z,8.77
2019-03-23T20:13:03.674Z,7.73
2019-03-23T20:15:33.294Z,8.07
2019-03-23T20:18:02.905Z,8.07
2019-03-23T20:20:32.489Z,8.63
2019-03-23T20:23:02.197Z,9.10
2019-03-23T20:25:31.785Z,8.93
2019-03-23T20:28:01.402Z,8.43
2019-03-23T20:30:31.086Z,7.87
2019-03-23T20:33:00.685Z,8.70
2019-03-23T20:35:30.293Z,8.33
2019-03-23T20:37:59.909Z,9.03
2019-03-23T20:40:29.503Z,8.97
2019-03-23T20:42:59.146Z,8.30
2019-03-23T20:45:30.580Z,9.23
2019-03-23T20:48:00.308Z,9.30
2019-03-23T20:50:30.139Z,9.17
2019-03-23T20:53:00.229Z,8.40
2019-03-23T20:55:32.027Z,8.40
2019-03-23T20:58:01.724Z,8.43
2019-03-23T21:00:31.310Z,8.30
2019-03-23T21:03:00.933Z,8.43
2019-03-23T21:05:34.279Z,8.00
2019-03-23T21:08:01.974Z,8.27
2019-03-23T21:10:31.590Z,8.10
2019-03-23T21:13:01.252Z,8.03
2019-03-23T21:15:30.861Z,8.77
2019-03-23T21:18:00.478Z,8.47
2019-03-23T21:20:30.140Z,7.97
2019-03-23T21:22:59.755Z,8.17
2019-03-23T21:25:29.363Z,8.47
2019-03-23T21:27:58.950Z,8.20
2019-03-23T21:30:28.737Z,7.90
2019-03-23T21:32:58.355Z,8.67
2019-03-23T21:35:27.974Z,8.77
2019-03-23T21:37:57.567Z,8.60
2019-03-23T21:40:27.182Z,8.50
2019-03-23T21:42:56.769Z,8.50
2019-03-23T21:45:26.392Z,10.43
2019-03-23T21:47:56.010Z,9.87
2019-03-23T21:50:25.605Z,8.17
2019-03-23T21:52:55.229Z,9.03
2019-03-23T21:55:24.817Z,8.60
2019-03-23T21:57:54.431Z,8.60
2019-03-23T22:00:34.324Z,8.10
2019-03-23T22:03:04.143Z,8.13
2019-03-23T22:05:33.761Z,9.07
2019-03-23T22:08:03.387Z,8.60
2019-03-23T22:10:33.006Z,8.13
2019-03-23T22:13:02.599Z,8.27
2019-03-23T22:15:33.467Z,8.03
2019-03-23T22:18:03.289Z,8.53
2019-03-23T22:20:32.979Z,8.20
2019-03-23T22:23:02.743Z,7.87
2019-03-23T22:25:32.330Z,8.13
2019-03-23T22:28:02.007Z,7.83
2019-03-23T22:30:31.615Z,8.87
2019-03-23T22:33:01.301Z,7.90
2019-03-23T22:35:30.917Z,7.87
2019-03-23T22:38:00.557Z,8.43
2019-03-23T22:40:30.142Z,7.23
2019-03-23T22:42:59.760Z,7.77
2019-03-23T22:45:29.366Z,7.77
2019-03-23T22:47:59.025Z,7.60
2019-03-23T22:50:28.654Z,7.40
2019-03-23T22:52:58.316Z,8.23
2019-03-23T22:55:27.940Z,8.27
2019-03-23T22:57:57.608Z,7.90
2019-03-23T23:00:28.890Z,7.83
2019-03-23T23:02:58.579Z,7.40
2019-03-23T23:05:28.172Z,7.70
2019-03-23T23:07:57.805Z,8.13
2019-03-23T23:10:27.399Z,6.97
2019-03-23T23:12:56.987Z,7.50
2019-03-23T23:15:26.594Z,7.10
2019-03-23T23:17:56.216Z,7.60
2019-03-23T23:20:25.806Z,6.80
2019-03-23T23:22:55.422Z,7.10
2019-03-23T23:25:25.041Z,7.03
2019-03-23T23:27:54.641Z,6.90
2019-03-23T23:30:24.270Z,7.50
2019-03-23T23:32:53.891Z,7.27
2019-03-23T23:35:23.748Z,6.90
2019-03-23T23:37:53.373Z,6.27
2019-03-23T23:40:22.969Z,7.50
2019-03-23T23:42:52.560Z,6.93
2019-03-23T23:45:22.174Z,6.53
2019-03-23T23:47:51.763Z,6.47
2019-03-23T23:50:21.380Z,6.90
2019-03-23T23:52:50.972Z,6.63
2019-03-23T23:55:20.588Z,6.63
2019-03-23T23:57:50.238Z,6.80
